Aplicació Alertes

Dades de l'estació automàtica Vallirana

?
?
Resum diari 22:30 TU
Dades diàries de l'estació meteorològica
Temperatura mitjana 7.1 °C
Temperatura màxima 12.3 °C 10:52 TU
Temperatura mínima 2.5 °C 7:34 TU
Humitat relativa mitjana 44%
Precipitació acumulada 0.0 mm
Ratxa màxima del vent (10 m) 34.2 km/h - 326º 16:23 TU
Pressió atmosfèrica mitjana 1026.7 hPa
Irradiació solar global 9.3 MJ/m2

El tram horari està expressat en Temps Universal (TU). Cal sumar una hora en horari d'hivern i dues en horari d'estiu per passar a l'hora oficial.

Vallirana

Metadades estació meteorol´gica
Municipi Vallirana
Comarca Baix Llobregat
Altitud 252 m
Data alta 28.10.1995
Estat actual Operativa
Dades de període
Període
TU
TM
°C
TX
°C
TN
°C
HRM
%
PPT
mm
VVM (10 m)
km/h
DVM (10 m)
graus
VVX (10 m)
km/h
PM
hPa
RS
W/m2
00:00 - 00:30 4.6 4.9 4.4 45 0.0 5.0 264 11.9 1023.7 0
00:30 - 01:00 5.3 6.1 4.9 41 0.0 4.3 264 13.0 1023.7 0
01:00 - 01:30 5.7 6.2 5.4 40 0.0 7.2 314 15.5 1023.9 0
01:30 - 02:00 6.2 6.4 6.0 40 0.0 6.8 312 16.6 1024.0 0
02:00 - 02:30 6.4 6.6 6.3 41 0.0 8.3 317 27.0 1023.9 0
02:30 - 03:00 6.6 6.8 6.3 43 0.0 14.8 325 30.2 1023.8 0
03:00 - 03:30 6.1 6.2 6.0 47 0.0 12.6 328 28.4 1024.0 0
03:30 - 04:00 5.9 6.0 5.7 47 0.0 10.1 325 21.6 1024.0 0
04:00 - 04:30 5.5 6.0 5.2 48 0.0 3.2 301 14.4 1024.3 0
04:30 - 05:00 5.3 5.5 5.2 49 0.0 9.7 343 29.5 1024.7 0
05:00 - 05:30 5.1 5.2 4.9 51 0.0 10.4 351 25.6 1025.3 0
05:30 - 06:00 4.5 5.0 4.1 55 0.0 9.4 340 22.3 1025.8 0
06:00 - 06:30 3.8 4.1 3.6 57 0.0 4.3 322 19.1 1026.1 0
06:30 - 07:00 3.6 4.3 2.9 57 0.0 3.6 301 18.7 1026.5 0
07:00 - 07:30 3.1 3.7 2.5 58 0.0 5.0 309 11.9 1026.8 4
07:30 - 08:00 2.9 3.8 2.5 59 0.0 6.8 307 15.1 1027.2 45
08:00 - 08:30 5.3 6.2 3.9 51 0.0 2.9 245 13.7 1027.2 134
08:30 - 09:00 6.2 6.4 5.9 45 0.0 6.1 267 18.0 1027.3 216
09:00 - 09:30 6.4 6.7 6.2 47 0.0 4.3 299 14.0 1027.8 289
09:30 - 10:00 7.5 8.9 6.5 45 0.0 1.8 311 10.4 1028.1 351
10:00 - 10:30 9.6 11.0 8.4 37 0.0 0.7 173 7.9 1027.8 402
10:30 - 11:00 11.4 12.3 10.3 32 0.0 2.2 224 15.5 1027.4 442
11:00 - 11:30 9.9 10.6 9.6 36 0.0 7.9 288 20.9 1027.3 469
11:30 - 12:00 10.7 11.1 10.5 34 0.0 6.1 309 20.5 1027.1 475
12:00 - 12:30 10.8 10.9 10.6 34 0.0 9.7 316 29.5 1026.6 469
12:30 - 13:00 11.4 11.6 11.0 34 0.0 8.3 332 21.6 1026.2 447
13:00 - 13:30 11.3 11.7 10.9 33 0.0 8.3 335 21.2 1026.1 412
13:30 - 14:00 10.8 10.9 10.4 35 0.0 9.0 336 23.8 1026.1 363
14:00 - 14:30 10.3 10.6 10.1 36 0.0 9.0 327 24.1 1026.3 301
14:30 - 15:00 10.3 10.4 10.1 34 0.0 7.9 314 24.8 1026.3 228
15:00 - 15:30 10.1 10.2 9.7 33 0.0 8.6 319 19.1 1026.4 140
15:30 - 16:00 9.3 9.6 9.0 33 0.0 7.9 311 26.3 1026.7 20
16:00 - 16:30 9.1 9.1 9.0 32 0.0 13.3 324 34.2 1026.9 7
16:30 - 17:00 8.5 9.0 8.3 33 0.0 9.0 330 23.8 1027.2 0
17:00 - 17:30 8.3 8.5 8.1 32 0.0 5.8 328 19.8 1027.4 0
17:30 - 18:00 8.0 8.3 7.6 33 0.0 5.4 310 14.8 1027.7 0
18:00 - 18:30 7.7 7.9 7.5 35 0.0 5.8 343 18.0 1028.0 0
18:30 - 19:00 7.5 7.7 7.2 40 0.0 2.5 7 12.6 1028.4 0
19:00 - 19:30 7.2 7.8 6.6 45 0.0 3.2 345 12.2 1028.8 0
19:30 - 20:00 6.0 7.3 5.0 49 0.0 0.7 340 8.6 1029.2 0
20:00 - 20:30 4.6 5.3 4.2 54 0.0 1.8 297 9.7 1029.6 0
20:30 - 21:00 4.3 5.2 3.7 57 0.0 1.8 308 9.0 1029.7 0
21:00 - 21:30 5.1 5.8 4.0 56 0.0 2.9 227 9.4 1029.5 0
21:30 - 22:00 5.1 5.9 4.2 57 0.0 3.2 282 11.9 1029.6 0
22:00 - 22:30 5.0 5.6 4.5 59 0.0 4.0 294 13.7 1029.8 0
22:30 - 23:00 6.4 6.9 5.7 55 0.0 0.0 221 3.2 1029.9 0

Les dades en taronja només han passat un control de qualitat automàtic. Resta pendent la seva validació definitiva.